createdAt,value
2018-09-05T00:00:21.443Z,17.19
2018-09-05T00:02:49.504Z,17.15
2018-09-05T00:05:17.522Z,17.21
2018-09-05T00:07:45.565Z,17.21
2018-09-05T00:10:13.560Z,17.08
2018-09-05T00:12:41.572Z,17.26
2018-09-05T00:15:09.593Z,17.27
2018-09-05T00:17:37.595Z,17.05
2018-09-05T00:20:05.605Z,17.02
2018-09-05T00:22:33.605Z,16.90
2018-09-05T00:25:01.638Z,16.78
2018-09-05T00:27:29.676Z,16.63
2018-09-05T00:29:57.689Z,16.70
2018-09-05T00:32:25.717Z,16.77
2018-09-05T00:34:53.720Z,16.77
2018-09-05T00:37:21.811Z,16.71
2018-09-05T00:39:49.848Z,16.85
2018-09-05T00:42:17.840Z,16.77
2018-09-05T00:44:45.844Z,16.95
2018-09-05T00:47:13.890Z,17.01
2018-09-05T00:49:41.876Z,16.97
2018-09-05T00:52:09.905Z,16.99
2018-09-05T00:54:37.925Z,16.93
2018-09-05T00:57:05.948Z,16.89
2018-09-05T00:59:33.938Z,16.96
2018-09-05T01:02:02.129Z,16.95
2018-09-05T01:04:30.257Z,17.00
2018-09-05T01:06:58.288Z,16.97
2018-09-05T01:09:26.275Z,16.98
2018-09-05T01:11:54.364Z,16.96
2018-09-05T01:14:22.405Z,16.99
2018-09-05T01:16:50.412Z,16.97
2018-09-05T01:19:18.436Z,17.06
2018-09-05T01:21:46.457Z,17.08
2018-09-05T01:24:14.499Z,17.01
2018-09-05T01:26:42.514Z,17.19
2018-09-05T01:29:10.541Z,17.18
2018-09-05T01:31:38.561Z,17.05
2018-09-05T01:34:06.607Z,17.00
2018-09-05T01:36:34.588Z,16.95
2018-09-05T01:39:02.628Z,16.90
2018-09-05T01:41:30.705Z,16.91
2018-09-05T01:43:58.728Z,16.92
2018-09-05T01:46:26.772Z,17.04
2018-09-05T01:48:54.906Z,17.03
2018-09-05T01:51:22.900Z,17.09
2018-09-05T01:53:50.922Z,17.20
2018-09-05T01:56:18.996Z,17.07
2018-09-05T01:58:46.997Z,16.91
2018-09-05T02:01:14.981Z,16.70
2018-09-05T02:03:43.016Z,16.47
2018-09-05T02:06:11.033Z,16.51
2018-09-05T02:08:39.081Z,16.48
2018-09-05T02:11:07.121Z,16.33
2018-09-05T02:13:35.149Z,16.46
2018-09-05T02:16:03.197Z,16.39
2018-09-05T02:18:31.201Z,16.44
2018-09-05T02:20:59.218Z,16.37
2018-09-05T02:23:27.239Z,16.36
2018-09-05T02:25:55.244Z,16.25
2018-09-05T02:28:23.260Z,16.14
2018-09-05T02:30:51.365Z,16.11
2018-09-05T02:33:19.369Z,16.12
2018-09-05T02:35:47.401Z,15.97
2018-09-05T02:38:15.434Z,15.91
2018-09-05T02:40:43.625Z,15.87
2018-09-05T02:43:11.683Z,15.70
2018-09-05T02:45:39.685Z,15.63
2018-09-05T02:48:07.704Z,15.62
2018-09-05T02:50:35.734Z,15.74
2018-09-05T02:53:03.765Z,15.78
2018-09-05T02:55:37.345Z,15.89
2018-09-05T02:58:05.644Z,15.82
2018-09-05T03:00:33.892Z,15.62
2018-09-05T03:03:01.903Z,15.70
2018-09-05T03:05:30.012Z,15.71
2018-09-05T03:07:58.017Z,15.69
2018-09-05T03:10:26.067Z,15.81
2018-09-05T03:12:54.114Z,15.71
2018-09-05T03:15:22.145Z,15.73
2018-09-05T03:17:50.120Z,15.64
2018-09-05T03:20:18.129Z,15.61
2018-09-05T03:22:46.202Z,15.54
2018-09-05T03:25:14.367Z,15.57
2018-09-05T03:27:42.456Z,15.47
2018-09-05T03:30:10.721Z,15.39
2018-09-05T03:32:38.858Z,15.30
2018-09-05T03:35:06.960Z,15.46
2018-09-05T03:37:34.992Z,15.50
2018-09-05T03:40:03.126Z,15.52
2018-09-05T03:42:31.147Z,15.63
2018-09-05T03:44:59.197Z,15.55
2018-09-05T03:47:27.290Z,15.57
2018-09-05T03:49:55.321Z,15.64
2018-09-05T03:52:23.360Z,15.42
2018-09-05T03:54:51.396Z,15.24
2018-09-05T03:57:19.761Z,15.18
2018-09-05T03:59:47.794Z,15.26
2018-09-05T04:02:15.881Z,15.24
2018-09-05T04:04:43.905Z,15.06
2018-09-05T04:07:11.923Z,14.98
2018-09-05T04:09:39.921Z,14.91
2018-09-05T04:12:07.962Z,14.92
2018-09-05T04:14:35.948Z,14.92
2018-09-05T04:17:03.982Z,14.85
2018-09-05T04:19:32.018Z,14.78
2018-09-05T04:22:00.017Z,14.93
2018-09-05T04:24:28.002Z,15.04
2018-09-05T04:26:56.073Z,15.12
2018-09-05T04:29:24.102Z,15.11
2018-09-05T04:31:52.055Z,15.13
2018-09-05T04:34:20.045Z,15.18
2018-09-05T04:36:48.116Z,15.22
2018-09-05T04:39:16.233Z,15.26
2018-09-05T04:41:44.236Z,15.27
2018-09-05T04:44:12.333Z,15.22
2018-09-05T04:46:40.368Z,15.27
2018-09-05T04:49:08.393Z,15.29
2018-09-05T04:52:16.480Z,15.20
2018-09-05T04:54:44.512Z,15.00
2018-09-05T04:57:12.593Z,14.92
2018-09-05T04:59:40.705Z,14.76
2018-09-05T05:02:08.743Z,14.73
2018-09-05T05:04:36.902Z,14.74
2018-09-05T05:07:04.880Z,14.79
2018-09-05T05:09:33.084Z,14.77
2018-09-05T05:12:01.081Z,14.96
2018-09-05T05:14:29.096Z,15.40
2018-09-05T05:16:57.347Z,15.92
2018-09-05T05:19:25.345Z,16.46
2018-09-05T05:21:53.360Z,16.99
2018-09-05T05:24:21.376Z,17.47
2018-09-05T05:26:49.423Z,17.78
2018-09-05T05:29:17.421Z,18.27
2018-09-05T05:31:45.438Z,18.59
2018-09-05T05:34:13.451Z,18.86
2018-09-05T05:36:41.521Z,19.43
2018-09-05T05:39:10.965Z,19.53
2018-09-05T05:41:39.057Z,19.73
2018-09-05T05:44:07.120Z,20.22
2018-09-05T05:46:35.412Z,20.57
2018-09-05T05:49:03.761Z,20.91
2018-09-05T05:51:31.909Z,21.11
2018-09-05T05:54:00.176Z,21.22
2018-09-05T05:56:28.177Z,21.45
2018-09-05T05:58:56.210Z,21.85
2018-09-05T06:01:24.239Z,22.08
2018-09-05T06:03:52.323Z,22.58
2018-09-05T06:06:20.529Z,23.02
2018-09-05T06:08:48.332Z,23.51
2018-09-05T06:11:16.408Z,23.43
2018-09-05T06:13:44.438Z,24.05
2018-09-05T06:16:12.510Z,24.94
2018-09-05T06:18:41.169Z,25.98
2018-09-05T06:21:09.271Z,26.64
2018-09-05T06:23:37.372Z,27.29
2018-09-05T06:26:05.554Z,26.14
2018-09-05T06:28:33.730Z,25.65
2018-09-05T06:31:01.768Z,24.67
2018-09-05T06:33:29.769Z,24.74
2018-09-05T06:35:57.805Z,24.38
2018-09-05T06:38:25.876Z,22.69
2018-09-05T06:40:53.952Z,21.43
2018-09-05T06:43:21.985Z,20.46
2018-09-05T06:45:49.992Z,19.48
2018-09-05T06:48:18.019Z,18.17
2018-09-05T06:50:46.033Z,17.49
2018-09-05T06:53:14.052Z,16.72
2018-09-05T06:55:42.109Z,16.20
2018-09-05T06:58:10.363Z,15.91
2018-09-05T07:00:38.341Z,15.90
2018-09-05T07:03:06.525Z,15.80
2018-09-05T07:05:34.533Z,15.69
2018-09-05T07:08:02.568Z,15.76
2018-09-05T07:10:30.629Z,15.76
2018-09-05T07:12:58.669Z,15.78
2018-09-05T07:15:26.676Z,16.04
2018-09-05T07:17:54.703Z,16.29
2018-09-05T07:20:22.720Z,16.60
2018-09-05T07:22:50.859Z,16.76
2018-09-05T07:25:18.892Z,16.88
2018-09-05T07:27:46.994Z,17.08
2018-09-05T07:30:16.534Z,17.23
2018-09-05T07:32:44.905Z,17.49
2018-09-05T07:35:12.917Z,17.78
2018-09-05T07:37:40.914Z,18.11
2018-09-05T07:40:08.913Z,18.64
2018-09-05T07:42:36.936Z,18.82
2018-09-05T07:45:04.946Z,19.18
2018-09-05T07:47:32.997Z,20.02
2018-09-05T07:50:01.037Z,21.28
2018-09-05T07:52:29.261Z,23.21
2018-09-05T07:54:57.270Z,25.26
2018-09-05T07:57:25.338Z,26.28
2018-09-05T07:59:53.355Z,26.57
2018-09-05T08:02:21.381Z,26.18
2018-09-05T08:04:49.388Z,26.11
2018-09-05T08:07:17.475Z,26.31
2018-09-05T08:09:45.469Z,27.26
2018-09-05T08:12:13.478Z,27.61
2018-09-05T08:14:41.477Z,27.43
2018-09-05T08:17:09.525Z,27.53
2018-09-05T08:19:37.569Z,27.63
2018-09-05T08:22:05.584Z,27.47
2018-09-05T08:24:33.657Z,27.73
2018-09-05T08:27:01.697Z,27.42
2018-09-05T08:29:29.778Z,27.72
2018-09-05T08:31:57.752Z,27.27
2018-09-05T08:34:25.773Z,26.53
2018-09-05T08:36:54.296Z,26.53
2018-09-05T08:39:21.987Z,27.06
2018-09-05T08:41:50.116Z,26.89
2018-09-05T08:44:18.287Z,26.47
2018-09-05T08:46:46.161Z,26.55
2018-09-05T08:49:14.115Z,27.28
2018-09-05T08:51:42.105Z,27.26
2018-09-05T08:54:10.166Z,26.95
2018-09-05T08:56:38.206Z,26.88
2018-09-05T08:59:06.197Z,26.15
2018-09-05T09:01:34.473Z,25.20
2018-09-05T09:04:02.649Z,24.26
2018-09-05T09:06:30.696Z,24.12
2018-09-05T09:08:58.755Z,24.17
2018-09-05T09:11:26.761Z,24.71
2018-09-05T09:13:54.772Z,24.13
2018-09-05T09:16:22.772Z,24.02
2018-09-05T09:18:50.788Z,23.75
2018-09-05T09:21:18.795Z,24.23
2018-09-05T09:23:46.809Z,23.94
2018-09-05T09:26:14.910Z,23.88
2018-09-05T09:28:42.948Z,23.66
2018-09-05T09:31:10.974Z,22.97
2018-09-05T09:33:38.989Z,22.67
2018-09-05T09:36:07.229Z,22.58
2018-09-05T09:38:35.237Z,22.61
2018-09-05T09:41:03.280Z,22.64
2018-09-05T09:43:31.290Z,22.72
2018-09-05T09:45:59.344Z,22.34
2018-09-05T09:48:27.363Z,22.60
2018-09-05T09:50:55.317Z,22.71
2018-09-05T09:53:23.420Z,22.60
2018-09-05T09:55:51.433Z,22.31
2018-09-05T09:58:19.569Z,22.00
2018-09-05T10:00:53.041Z,21.64
2018-09-05T10:03:26.651Z,21.57
2018-09-05T10:06:00.112Z,21.64
2018-09-05T10:08:31.297Z,21.42
2018-09-05T10:11:02.420Z,21.34
2018-09-05T10:13:35.793Z,21.28
2018-09-05T10:16:09.176Z,21.42
2018-09-05T10:18:39.457Z,21.23
2018-09-05T10:21:07.508Z,21.11
2018-09-05T10:23:35.426Z,21.10
2018-09-05T10:26:03.422Z,21.32
2018-09-05T10:28:31.417Z,21.92
2018-09-05T10:30:59.429Z,22.24
2018-09-05T10:33:27.429Z,22.76
2018-09-05T10:35:55.459Z,22.59
2018-09-05T10:38:23.437Z,22.49
2018-09-05T10:40:51.440Z,22.62
2018-09-05T10:43:19.433Z,22.67
2018-09-05T10:45:47.440Z,22.62
2018-09-05T10:48:15.533Z,23.07
2018-09-05T10:50:43.686Z,23.44
2018-09-05T10:53:11.679Z,23.61
2018-09-05T10:55:39.712Z,23.78
2018-09-05T10:58:07.713Z,23.66
2018-09-05T11:00:35.717Z,23.53
2018-09-05T11:03:03.776Z,23.30
2018-09-05T11:05:31.779Z,23.02
2018-09-05T11:07:59.794Z,22.81
2018-09-05T11:10:27.846Z,22.92
2018-09-05T11:12:55.861Z,22.90
2018-09-05T11:15:23.864Z,22.90
2018-09-05T11:17:51.865Z,23.06
2018-09-05T11:20:19.896Z,23.08
2018-09-05T11:22:47.985Z,23.22
2018-09-05T11:25:16.013Z,23.23
2018-09-05T11:27:44.044Z,23.24
2018-09-05T11:30:12.017Z,23.48
2018-09-05T11:32:40.057Z,23.81
2018-09-05T11:35:08.161Z,24.03
2018-09-05T11:37:36.190Z,23.93
2018-09-05T11:40:04.242Z,24.00
2018-09-05T11:42:32.308Z,24.05
2018-09-05T11:45:00.447Z,24.08
2018-09-05T11:47:28.549Z,24.22
2018-09-05T11:49:56.631Z,24.31
2018-09-05T11:52:24.815Z,24.21
2018-09-05T11:54:52.823Z,24.49
2018-09-05T11:57:21.256Z,24.76
2018-09-05T11:59:49.349Z,24.79
2018-09-05T12:02:17.433Z,24.97
2018-09-05T12:04:45.444Z,24.88
2018-09-05T12:07:13.448Z,25.09
2018-09-05T12:09:41.453Z,25.18
2018-09-05T12:12:09.881Z,25.19
2018-09-05T12:14:37.908Z,25.39
2018-09-05T12:17:05.949Z,25.08
2018-09-05T12:19:33.973Z,24.87
2018-09-05T12:22:01.998Z,24.88
2018-09-05T12:24:30.089Z,25.26
2018-09-05T12:26:58.714Z,25.36
2018-09-05T12:29:29.788Z,25.59
2018-09-05T12:31:57.889Z,25.43
2018-09-05T12:34:26.137Z,25.58
2018-09-05T12:36:54.396Z,25.57
2018-09-05T12:39:22.389Z,25.59
2018-09-05T12:41:50.545Z,25.53
2018-09-05T12:44:18.616Z,25.27
2018-09-05T12:46:46.645Z,25.29
2018-09-05T12:49:14.715Z,25.18
2018-09-05T12:51:42.807Z,25.14
2018-09-05T12:54:11.175Z,25.09
2018-09-05T12:56:39.247Z,25.24
2018-09-05T12:59:07.540Z,25.47
2018-09-05T13:01:35.529Z,25.98
2018-09-05T13:04:03.628Z,26.03
2018-09-05T13:06:31.673Z,26.08
2018-09-05T13:09:00.077Z,26.09
2018-09-05T13:11:28.417Z,26.34
2018-09-05T13:13:56.570Z,26.27
2018-09-05T13:16:24.653Z,26.17
2018-09-05T13:18:52.644Z,26.24
2018-09-05T13:21:20.838Z,25.92
2018-09-05T13:23:49.185Z,26.06
2018-09-05T13:26:17.544Z,26.10
2018-09-05T13:28:45.703Z,26.37
2018-09-05T13:31:13.692Z,26.63
2018-09-05T13:33:41.758Z,26.75
2018-09-05T13:36:09.760Z,26.91
2018-09-05T13:38:37.775Z,26.99
2018-09-05T13:41:05.761Z,26.84
2018-09-05T13:43:33.792Z,26.67
2018-09-05T13:46:01.866Z,26.62
2018-09-05T13:48:29.887Z,26.82
2018-09-05T13:50:57.898Z,26.73
2018-09-05T13:53:25.970Z,26.36
2018-09-05T13:55:53.980Z,26.36
2018-09-05T13:58:22.009Z,26.53
2018-09-05T14:00:50.151Z,26.70
2018-09-05T14:03:18.284Z,26.67
2018-09-05T14:05:46.291Z,26.65
2018-09-05T14:08:14.611Z,26.71
2018-09-05T14:10:42.598Z,26.86
2018-09-05T14:13:10.608Z,26.83
2018-09-05T14:15:38.626Z,26.92
2018-09-05T14:18:06.680Z,26.87
2018-09-05T14:20:34.762Z,27.04
2018-09-05T14:23:02.753Z,27.22
2018-09-05T14:25:30.781Z,27.34
2018-09-05T14:27:58.856Z,27.19
2018-09-05T14:30:26.997Z,26.94
2018-09-05T14:32:54.980Z,26.95
2018-09-05T14:35:22.977Z,26.88
2018-09-05T14:37:51.164Z,26.74
2018-09-05T14:40:19.224Z,26.83
2018-09-05T14:42:47.672Z,26.79
2018-09-05T14:45:16.216Z,27.08
2018-09-05T14:47:44.271Z,27.07
2018-09-05T14:50:12.343Z,27.35
2018-09-05T14:52:40.457Z,27.28
2018-09-05T14:55:08.693Z,27.65
2018-09-05T14:57:36.773Z,27.62
2018-09-05T15:00:05.429Z,27.56
2018-09-05T15:02:33.408Z,27.57
2018-09-05T15:05:01.449Z,27.58
2018-09-05T15:07:29.549Z,27.58
2018-09-05T15:09:57.597Z,27.52
2018-09-05T15:12:25.674Z,27.51
2018-09-05T15:14:53.704Z,27.51
2018-09-05T15:17:21.741Z,27.26
2018-09-05T15:19:50.303Z,27.27
2018-09-05T15:22:18.344Z,27.48
2018-09-05T15:24:46.344Z,27.60
2018-09-05T15:27:14.366Z,27.66
2018-09-05T15:29:42.507Z,27.83
2018-09-05T15:32:10.503Z,27.76
2018-09-05T15:34:38.489Z,27.62
2018-09-05T15:37:06.498Z,27.45
2018-09-05T15:39:34.517Z,27.54
2018-09-05T15:42:02.553Z,27.25
2018-09-05T15:44:37.257Z,27.21
2018-09-05T15:47:05.379Z,27.21
2018-09-05T15:49:33.378Z,27.23
2018-09-05T15:52:01.387Z,27.18
2018-09-05T15:54:29.398Z,27.32
2018-09-05T15:56:57.394Z,27.34
2018-09-05T15:59:25.384Z,27.40
2018-09-05T16:01:54.412Z,27.50
2018-09-05T16:04:22.409Z,27.19
2018-09-05T16:06:50.417Z,27.26
2018-09-05T16:09:18.417Z,27.47
2018-09-05T16:11:46.426Z,27.69
2018-09-05T16:14:14.429Z,27.63
2018-09-05T16:16:42.430Z,27.47
2018-09-05T16:19:10.412Z,27.18
2018-09-05T16:21:38.420Z,27.17
2018-09-05T16:24:06.540Z,27.01
2018-09-05T16:26:34.577Z,26.97
2018-09-05T16:29:02.576Z,27.19
2018-09-05T16:31:30.585Z,27.01
2018-09-05T16:33:58.576Z,26.83
2018-09-05T16:36:26.654Z,26.80
2018-09-05T16:38:54.641Z,27.05
2018-09-05T16:41:22.791Z,27.01
2018-09-05T16:43:50.849Z,26.80
2018-09-05T16:46:18.903Z,26.83
2018-09-05T16:48:47.007Z,26.95
2018-09-05T16:51:15.137Z,26.85
2018-09-05T16:53:43.156Z,26.95
2018-09-05T16:56:11.193Z,26.80
2018-09-05T16:58:39.205Z,26.69
2018-09-05T17:01:07.409Z,26.66
2018-09-05T17:03:35.552Z,26.49
2018-09-05T17:06:03.591Z,26.60
2018-09-05T17:08:31.617Z,26.64
2018-09-05T17:10:59.629Z,26.54
2018-09-05T17:13:27.654Z,26.41
2018-09-05T17:15:55.677Z,26.60
2018-09-05T17:18:23.820Z,26.60
2018-09-05T17:20:51.900Z,26.65
2018-09-05T17:23:19.965Z,26.71
2018-09-05T17:25:47.964Z,26.65
2018-09-05T17:28:16.648Z,26.77
2018-09-05T17:30:44.823Z,26.87
2018-09-05T17:33:12.875Z,26.68
2018-09-05T17:35:40.969Z,26.69
2018-09-05T17:38:09.016Z,26.70
2018-09-05T17:40:37.033Z,26.71
2018-09-05T17:43:05.229Z,26.67
2018-09-05T17:45:33.318Z,26.53
2018-09-05T17:48:01.329Z,26.49
2018-09-05T17:50:30.333Z,26.41
2018-09-05T17:52:58.319Z,26.26
2018-09-05T17:55:26.373Z,26.12
2018-09-05T17:57:54.376Z,26.10
2018-09-05T18:00:22.408Z,26.07
2018-09-05T18:02:50.813Z,25.98
2018-09-05T18:05:18.853Z,25.71
2018-09-05T18:07:46.994Z,25.59
2018-09-05T18:10:15.010Z,25.53
2018-09-05T18:12:43.030Z,25.37
2018-09-05T18:15:11.052Z,25.32
2018-09-05T18:17:39.061Z,25.20
2018-09-05T18:20:07.304Z,25.11
2018-09-05T18:22:35.333Z,24.96
2018-09-05T18:25:03.365Z,24.86
2018-09-05T18:27:31.756Z,24.77
2018-09-05T18:29:59.796Z,24.72
2018-09-05T18:32:27.880Z,24.67
2018-09-05T18:34:55.891Z,24.67
2018-09-05T18:37:23.901Z,24.46
2018-09-05T18:39:52.017Z,24.38
2018-09-05T18:42:20.292Z,24.18
2018-09-05T18:44:48.426Z,24.13
2018-09-05T18:47:16.592Z,24.05
2018-09-05T18:49:44.687Z,23.94
2018-09-05T18:52:12.730Z,23.86
2018-09-05T18:54:40.765Z,23.80
2018-09-05T18:57:08.800Z,23.74
2018-09-05T18:59:37.066Z,23.64
2018-09-05T19:02:05.225Z,23.54
2018-09-05T19:04:33.264Z,23.35
2018-09-05T19:07:01.294Z,23.26
2018-09-05T19:09:29.288Z,23.30
2018-09-05T19:11:57.376Z,23.09
2018-09-05T19:14:25.508Z,23.03
2018-09-05T19:16:53.549Z,22.96
2018-09-05T19:19:21.541Z,22.88
2018-09-05T19:21:49.577Z,22.72
2018-09-05T19:24:17.647Z,22.66
2018-09-05T19:26:45.697Z,22.53
2018-09-05T19:29:13.783Z,22.37
2018-09-05T19:31:41.777Z,22.33
2018-09-05T19:36:39.961Z,22.20
2018-09-05T19:39:09.529Z,22.25
2018-09-05T19:41:38.589Z,22.29
2018-09-05T19:44:06.689Z,22.23
2018-09-05T19:46:34.957Z,22.22
2018-09-05T19:49:03.089Z,22.19
2018-09-05T19:51:31.178Z,22.18
2018-09-05T19:53:59.232Z,22.18
2018-09-05T19:56:27.385Z,22.17
2018-09-05T19:58:55.473Z,22.10
2018-09-05T20:01:23.505Z,21.99
2018-09-05T20:03:51.565Z,21.92
2018-09-05T20:06:20.840Z,21.83
2018-09-05T20:08:48.932Z,21.70
2018-09-05T20:11:16.968Z,21.63
2018-09-05T20:13:44.983Z,21.45
2018-09-05T20:16:13.001Z,21.35
2018-09-05T20:18:41.010Z,21.35
2018-09-05T20:21:09.010Z,21.28
2018-09-05T20:23:37.122Z,21.20
2018-09-05T20:26:05.089Z,21.19
2018-09-05T20:28:33.115Z,21.14
2018-09-05T20:31:01.095Z,21.09
2018-09-05T20:33:29.095Z,21.03
2018-09-05T20:35:57.499Z,20.76
2018-09-05T20:38:25.733Z,20.54
2018-09-05T20:40:53.772Z,20.64
2018-09-05T20:43:21.785Z,20.61
2018-09-05T20:45:49.902Z,20.59
2018-09-05T20:48:17.916Z,20.24
2018-09-05T20:50:45.953Z,20.20
2018-09-05T20:53:14.073Z,20.25
2018-09-05T20:55:42.201Z,20.11
2018-09-05T20:58:10.246Z,20.09
2018-09-05T21:00:38.241Z,19.95
2018-09-05T21:03:06.238Z,19.87
2018-09-05T21:05:34.246Z,19.67
2018-09-05T21:08:02.281Z,19.46
2018-09-05T21:10:30.292Z,19.42
2018-09-05T21:12:58.497Z,19.25
2018-09-05T21:15:26.520Z,19.22
2018-09-05T21:17:54.672Z,19.25
2018-09-05T21:20:22.714Z,19.08
2018-09-05T21:22:50.718Z,18.99
2018-09-05T21:25:18.759Z,19.07
2018-09-05T21:27:46.754Z,19.12
2018-09-05T21:30:14.759Z,19.18
2018-09-05T21:32:42.843Z,19.10
2018-09-05T21:35:10.822Z,18.94
2018-09-05T21:37:38.822Z,18.95
2018-09-05T21:40:07.102Z,18.92
2018-09-05T21:42:35.105Z,18.87
2018-09-05T21:45:03.099Z,19.01
2018-09-05T21:47:31.118Z,18.96
2018-09-05T21:49:59.144Z,19.02
2018-09-05T21:52:27.221Z,18.95
2018-09-05T21:54:55.745Z,18.90
2018-09-05T21:57:23.789Z,18.79
2018-09-05T21:59:52.086Z,18.78
2018-09-05T22:02:20.106Z,18.76
2018-09-05T22:04:48.142Z,18.78
2018-09-05T22:07:16.345Z,18.70
2018-09-05T22:09:44.488Z,18.71
2018-09-05T22:12:12.497Z,18.62
2018-09-05T22:14:40.517Z,18.58
2018-09-05T22:17:08.538Z,18.60
2018-09-05T22:19:36.581Z,18.58
2018-09-05T22:22:04.588Z,18.52
2018-09-05T22:24:32.600Z,18.53
2018-09-05T22:27:00.636Z,18.62
2018-09-05T22:29:28.625Z,18.54
2018-09-05T22:31:56.784Z,18.54
2018-09-05T22:34:24.817Z,18.44
2018-09-05T22:36:52.824Z,18.45
2018-09-05T22:39:20.849Z,18.28
2018-09-05T22:41:48.860Z,18.29
2018-09-05T22:44:28.254Z,18.20
2018-09-05T22:47:07.730Z,18.16
2018-09-05T22:52:57.277Z,18.15
2018-09-05T22:56:39.418Z,17.94
2018-09-05T22:59:15.949Z,17.81
2018-09-05T23:04:01.278Z,17.81
2018-09-05T23:06:39.325Z,17.66
2018-09-05T23:09:08.574Z,17.69
2018-09-05T23:12:00.021Z,17.69
2018-09-05T23:14:40.297Z,17.69
2018-09-05T23:17:20.221Z,17.65
2018-09-05T23:20:03.981Z,17.65
2018-09-05T23:22:43.231Z,17.68
2018-09-05T23:25:11.236Z,17.71
2018-09-05T23:27:39.263Z,17.64
2018-09-05T23:30:07.425Z,17.63
2018-09-05T23:32:35.493Z,17.67
2018-09-05T23:35:03.544Z,17.61
2018-09-05T23:37:31.546Z,17.62
2018-09-05T23:40:00.557Z,17.64
2018-09-05T23:42:28.625Z,17.57
2018-09-05T23:44:56.889Z,17.62
2018-09-05T23:47:24.914Z,17.48
2018-09-05T23:49:52.926Z,17.51
2018-09-05T23:52:20.995Z,17.49
2018-09-05T23:54:49.051Z,17.40
2018-09-05T23:57:17.013Z,17.50
2018-09-05T23:59:45.131Z,17.49
